createdAt,value
2023-04-23T00:00:00.165Z,17.14
2023-04-23T00:02:29.560Z,17.18
2023-04-23T00:05:02.206Z,17.02
2023-04-23T00:07:29.948Z,17.09
2023-04-23T00:09:59.459Z,17.28
2023-04-23T00:12:27.332Z,17.33
2023-04-23T00:14:55.090Z,17.21
2023-04-23T00:17:21.811Z,17.25
2023-04-23T00:19:48.507Z,17.17
2023-04-23T00:22:16.408Z,17.10
2023-04-23T00:24:43.971Z,17.15
2023-04-23T00:27:12.546Z,17.20
2023-04-23T00:29:39.626Z,17.17
2023-04-23T00:32:06.543Z,17.17
2023-04-23T00:34:33.496Z,17.22
2023-04-23T00:37:01.993Z,17.01
2023-04-23T00:39:28.761Z,16.98
2023-04-23T00:41:55.864Z,16.90
2023-04-23T00:44:24.344Z,17.07
2023-04-23T00:46:52.345Z,17.11
2023-04-23T00:49:19.795Z,16.88
2023-04-23T00:51:46.837Z,16.88
2023-04-23T00:54:14.496Z,16.77
2023-04-23T00:56:41.733Z,16.70
2023-04-23T00:59:09.082Z,16.66
2023-04-23T01:01:38.030Z,16.77
2023-04-23T01:04:06.837Z,16.84
2023-04-23T01:06:33.965Z,16.72
2023-04-23T01:09:01.306Z,16.83
2023-04-23T01:11:28.252Z,16.75
2023-04-23T01:13:55.680Z,16.70
2023-04-23T01:16:22.317Z,16.66
2023-04-23T01:18:50.606Z,16.63
2023-04-23T01:21:18.477Z,16.79
2023-04-23T01:23:46.752Z,16.68
2023-04-23T01:26:13.509Z,16.72
2023-04-23T01:28:41.150Z,16.82
2023-04-23T01:31:08.517Z,16.85
2023-04-23T01:33:35.907Z,16.82
2023-04-23T01:36:03.372Z,16.81
2023-04-23T01:38:33.565Z,16.74
2023-04-23T01:41:02.046Z,16.71
2023-04-23T01:43:31.747Z,16.67
2023-04-23T01:46:00.643Z,16.71
2023-04-23T01:48:27.679Z,16.87
2023-04-23T01:50:54.974Z,16.86
2023-04-23T01:53:21.786Z,16.84
2023-04-23T01:55:51.571Z,16.80
2023-04-23T01:58:20.145Z,16.68
2023-04-23T02:00:47.145Z,16.82
2023-04-23T02:03:14.559Z,16.64
2023-04-23T02:05:42.410Z,16.78
2023-04-23T02:08:10.215Z,16.71
2023-04-23T02:10:37.401Z,16.81
2023-04-23T02:13:04.804Z,16.63
2023-04-23T02:15:33.187Z,16.70
2023-04-23T02:18:00.343Z,16.71
2023-04-23T02:20:27.351Z,16.68
2023-04-23T02:22:54.387Z,16.58
2023-04-23T02:25:21.244Z,16.60
2023-04-23T02:27:48.317Z,16.56
2023-04-23T02:30:15.432Z,16.58
2023-04-23T02:32:43.647Z,16.79
2023-04-23T02:35:10.495Z,16.75
2023-04-23T02:37:37.639Z,16.77
2023-04-23T02:40:05.334Z,16.86
2023-04-23T02:42:32.112Z,16.90
2023-04-23T02:44:59.052Z,16.91
2023-04-23T02:47:25.907Z,16.89
2023-04-23T02:49:54.462Z,16.96
2023-04-23T02:52:21.195Z,16.92
2023-04-23T02:54:47.954Z,16.94
2023-04-23T02:57:14.782Z,17.00
2023-04-23T02:59:41.590Z,17.03
2023-04-23T03:02:08.346Z,17.01
2023-04-23T03:04:35.418Z,17.03
2023-04-23T03:07:03.896Z,17.01
2023-04-23T03:09:30.682Z,16.95
2023-04-23T03:11:57.770Z,17.01
2023-04-23T03:14:24.607Z,16.98
2023-04-23T03:16:51.397Z,16.94
2023-04-23T03:19:18.426Z,16.89
2023-04-23T03:21:45.391Z,16.93
2023-04-23T03:24:14.625Z,16.90
2023-04-23T03:26:41.327Z,17.00
2023-04-23T03:29:08.402Z,16.95
2023-04-23T03:31:35.463Z,16.94
2023-04-23T03:34:02.593Z,16.94
2023-04-23T03:36:29.699Z,16.75
2023-04-23T03:38:56.571Z,16.94
2023-04-23T03:41:25.353Z,16.95
2023-04-23T03:43:52.331Z,16.92
2023-04-23T03:46:19.082Z,16.92
2023-04-23T03:48:46.177Z,16.96
2023-04-23T03:51:12.998Z,16.87
2023-04-23T03:53:39.732Z,17.01
2023-04-23T03:56:06.970Z,17.05
2023-04-23T03:58:35.372Z,17.12
2023-04-23T04:01:02.158Z,17.11
2023-04-23T04:03:29.023Z,17.09
2023-04-23T04:05:56.196Z,17.04
2023-04-23T04:08:22.974Z,17.16
2023-04-23T04:10:49.956Z,17.12
2023-04-23T04:13:16.935Z,17.08
2023-04-23T04:15:45.330Z,17.11
2023-04-23T04:18:12.600Z,17.04
2023-04-23T04:20:39.304Z,17.10
2023-04-23T04:23:06.167Z,17.12
2023-04-23T04:25:33.299Z,17.15
2023-04-23T04:28:00.284Z,17.01
2023-04-23T04:30:27.011Z,17.02
2023-04-23T04:32:55.331Z,17.07
2023-04-23T04:35:22.367Z,17.04
2023-04-23T04:37:49.153Z,16.98
2023-04-23T04:40:16.252Z,16.97
2023-04-23T04:42:43.063Z,16.91
2023-04-23T04:45:10.559Z,16.90
2023-04-23T04:47:37.596Z,16.91
2023-04-23T04:50:07.564Z,16.87
2023-04-23T04:52:34.387Z,16.81
2023-04-23T04:55:01.189Z,16.73
2023-04-23T04:57:27.967Z,16.84
2023-04-23T04:59:54.772Z,16.79
2023-04-23T05:02:21.701Z,16.92
2023-04-23T05:04:48.626Z,16.89
2023-04-23T05:07:17.006Z,17.02
2023-04-23T05:09:45.075Z,17.06
2023-04-23T05:12:12.374Z,17.07
2023-04-23T05:14:39.394Z,17.04
2023-04-23T05:17:06.921Z,17.06
2023-04-23T05:19:33.878Z,17.02
2023-04-23T05:22:00.616Z,16.97
2023-04-23T05:24:28.790Z,16.89
2023-04-23T05:26:56.093Z,16.86
2023-04-23T05:29:22.794Z,16.88
2023-04-23T05:31:50.347Z,16.99
2023-04-23T05:34:17.345Z,17.16
2023-04-23T05:36:44.171Z,17.13
2023-04-23T05:39:11.199Z,17.25
2023-04-23T05:41:39.977Z,17.25
2023-04-23T05:44:06.835Z,17.37
2023-04-23T05:46:33.870Z,17.37
2023-04-23T05:49:00.961Z,17.42
2023-04-23T05:51:27.785Z,17.49
2023-04-23T05:53:54.569Z,17.50
2023-04-23T05:56:21.774Z,17.39
2023-04-23T05:58:50.526Z,17.30
2023-04-23T06:01:17.897Z,17.40
2023-04-23T06:03:45.067Z,17.34
2023-04-23T06:06:12.316Z,17.22
2023-04-23T06:08:38.977Z,17.20
2023-04-23T06:11:06.261Z,17.29
2023-04-23T06:13:33.503Z,17.23
2023-04-23T06:16:01.965Z,17.26
2023-04-23T06:18:28.766Z,17.23
2023-04-23T06:20:55.505Z,17.23
2023-04-23T06:23:22.117Z,17.08
2023-04-23T06:25:48.955Z,17.30
2023-04-23T06:28:15.896Z,17.25
2023-04-23T06:30:42.766Z,17.28
2023-04-23T06:33:11.252Z,17.20
2023-04-23T06:35:37.995Z,17.16
2023-04-23T06:38:04.693Z,17.12
2023-04-23T06:40:32.005Z,17.15
2023-04-23T06:42:58.782Z,17.19
2023-04-23T06:45:25.905Z,17.19
2023-04-23T06:47:52.755Z,17.20
2023-04-23T06:50:20.950Z,17.23
2023-04-23T06:52:48.073Z,17.38
2023-04-23T06:55:15.304Z,17.43
2023-04-23T06:57:42.221Z,17.48
2023-04-23T07:00:10.647Z,17.55
2023-04-23T07:02:37.754Z,17.68
2023-04-23T07:05:05.575Z,17.56
2023-04-23T07:07:34.082Z,17.68
2023-04-23T07:10:01.186Z,17.74
2023-04-23T07:12:27.920Z,17.89
2023-04-23T07:14:55.310Z,18.00
2023-04-23T07:17:22.163Z,17.92
2023-04-23T07:19:49.023Z,18.07
2023-04-23T07:22:16.077Z,18.16
2023-04-23T07:24:44.498Z,18.21
2023-04-23T07:27:11.474Z,18.33
2023-04-23T07:29:39.753Z,18.49
2023-04-23T07:32:06.893Z,18.66
2023-04-23T07:34:36.240Z,18.83
2023-04-23T07:37:03.578Z,18.91
2023-04-23T07:39:34.011Z,19.14
2023-04-23T07:42:02.276Z,19.31
2023-04-23T07:44:29.343Z,19.33
2023-04-23T07:46:56.190Z,19.24
2023-04-23T07:49:22.991Z,19.18
2023-04-23T07:51:49.814Z,19.14
2023-04-23T07:54:16.763Z,19.05
2023-04-23T07:56:43.582Z,18.99
2023-04-23T07:59:11.893Z,19.05
2023-04-23T08:01:38.806Z,18.93
2023-04-23T08:04:05.985Z,18.80
2023-04-23T08:06:32.970Z,18.60
2023-04-23T08:08:59.718Z,18.37
2023-04-23T08:11:26.672Z,18.50
2023-04-23T08:13:53.404Z,18.58
2023-04-23T08:16:21.597Z,18.63
2023-04-23T08:19:01.684Z,18.54
2023-04-23T08:21:31.725Z,18.66
2023-04-23T08:23:58.569Z,18.66
2023-04-23T08:26:25.572Z,18.78
2023-04-23T08:28:54.259Z,18.73
2023-04-23T08:31:27.022Z,18.79
2023-04-23T08:33:54.249Z,18.90
2023-04-23T08:36:21.386Z,18.96
2023-04-23T08:38:48.190Z,18.91
2023-04-23T08:41:18.328Z,18.87
2023-04-23T08:43:51.633Z,18.68
2023-04-23T08:46:19.640Z,18.80
2023-04-23T08:48:50.318Z,18.97
2023-04-23T08:51:19.507Z,18.96
2023-04-23T08:53:51.454Z,19.03
2023-04-23T08:56:20.247Z,18.90
2023-04-23T08:58:47.491Z,18.81
2023-04-23T09:01:15.101Z,18.35
2023-04-23T09:03:42.942Z,18.16
2023-04-23T09:06:12.312Z,18.20
2023-04-23T09:08:39.109Z,18.28
2023-04-23T09:11:06.776Z,18.42
2023-04-23T09:13:37.200Z,18.50
2023-04-23T09:16:05.908Z,18.54
2023-04-23T09:18:32.764Z,18.38
2023-04-23T09:21:01.526Z,18.45
2023-04-23T09:23:29.852Z,18.60
2023-04-23T09:25:56.929Z,18.84
2023-04-23T09:28:34.810Z,18.87
2023-04-23T09:31:02.441Z,18.95
2023-04-23T09:33:31.765Z,18.67
2023-04-23T09:35:59.990Z,18.47
2023-04-23T09:38:27.929Z,18.45
2023-04-23T09:40:57.158Z,18.27
2023-04-23T09:43:25.213Z,18.35
2023-04-23T09:45:53.010Z,18.44
2023-04-23T09:48:21.354Z,18.50
2023-04-23T09:50:49.130Z,18.58
2023-04-23T09:53:16.031Z,18.67
2023-04-23T09:55:45.848Z,18.72
2023-04-23T09:58:16.105Z,18.70
2023-04-23T10:00:45.900Z,18.74
2023-04-23T10:03:13.638Z,18.74
2023-04-23T10:08:13.440Z,18.76
2023-04-23T10:10:59.572Z,18.87
2023-04-23T10:13:32.934Z,18.80
2023-04-23T10:16:14.099Z,18.91
2023-04-23T10:18:49.083Z,19.00
2023-04-23T10:21:17.811Z,19.23
2023-04-23T10:23:47.916Z,19.43
2023-04-23T10:26:16.923Z,19.45
2023-04-23T10:28:49.340Z,19.51
2023-04-23T10:31:20.339Z,19.41
2023-04-23T10:33:58.159Z,19.22
2023-04-23T10:36:27.950Z,19.19
2023-04-23T10:38:58.320Z,19.10
2023-04-23T10:41:35.571Z,19.09
2023-04-23T10:44:05.178Z,18.95
2023-04-23T10:46:33.466Z,18.98
2023-04-23T10:49:09.268Z,19.00
2023-04-23T10:54:08.156Z,18.87
2023-04-23T10:56:36.337Z,18.79
2023-04-23T10:59:06.874Z,18.71
2023-04-23T11:01:34.566Z,18.76
2023-04-23T11:04:24.464Z,18.70
2023-04-23T11:06:57.875Z,18.60
2023-04-23T11:09:37.967Z,18.64
2023-04-23T11:12:15.506Z,18.46
2023-04-23T11:14:47.591Z,18.31
2023-04-23T11:17:16.928Z,18.27
2023-04-23T11:20:09.975Z,18.45
2023-04-23T11:22:39.252Z,18.47
2023-04-23T11:25:10.632Z,18.56
2023-04-23T11:27:39.711Z,18.52
2023-04-23T11:30:13.459Z,18.58
2023-04-23T11:32:41.706Z,18.68
2023-04-23T11:35:11.951Z,18.74
2023-04-23T11:37:42.113Z,18.66
2023-04-23T11:40:12.387Z,18.36
2023-04-23T11:42:43.522Z,18.28
2023-04-23T11:45:17.979Z,18.49
2023-04-23T11:47:47.022Z,18.62
2023-04-23T11:50:19.511Z,18.49
2023-04-23T11:52:47.602Z,18.59
2023-04-23T11:55:14.924Z,18.55
2023-04-23T11:57:43.539Z,18.78
2023-04-23T12:00:18.451Z,18.67
2023-04-23T12:02:53.531Z,18.72
2023-04-23T12:05:22.639Z,18.79
2023-04-23T12:07:52.283Z,18.70
2023-04-23T12:10:21.057Z,18.64
2023-04-23T12:12:53.005Z,18.53
2023-04-23T12:15:21.734Z,18.66
2023-04-23T12:17:50.487Z,18.65
2023-04-23T12:20:19.749Z,18.60
2023-04-23T12:22:47.324Z,18.71
2023-04-23T12:25:14.880Z,18.64
2023-04-23T12:27:45.138Z,18.63
2023-04-23T12:30:13.425Z,18.68
2023-04-23T12:32:44.345Z,18.65
2023-04-23T12:35:11.972Z,18.70
2023-04-23T12:37:40.689Z,18.80
2023-04-23T12:40:09.723Z,18.86
2023-04-23T12:42:37.779Z,19.02
2023-04-23T12:45:09.700Z,18.91
2023-04-23T12:47:37.356Z,18.85
2023-04-23T12:50:08.491Z,18.85
2023-04-23T12:52:35.914Z,18.77
2023-04-23T12:55:03.633Z,18.79
2023-04-23T12:57:31.488Z,18.87
2023-04-23T12:59:58.740Z,18.97
2023-04-23T13:02:26.854Z,19.14
2023-04-23T13:04:54.587Z,19.25
2023-04-23T13:07:24.402Z,19.39
2023-04-23T13:09:52.013Z,19.79
2023-04-23T13:12:19.147Z,20.05
2023-04-23T13:14:45.924Z,20.36
2023-04-23T13:17:13.620Z,20.76
2023-04-23T13:19:41.721Z,20.84
2023-04-23T13:22:09.574Z,21.14
2023-04-23T13:24:41.273Z,21.56
2023-04-23T13:27:09.579Z,21.99
2023-04-23T13:29:37.310Z,22.45
2023-04-23T13:32:05.666Z,22.84
2023-04-23T13:34:34.038Z,23.03
2023-04-23T13:37:01.825Z,22.87
2023-04-23T13:39:29.211Z,22.92
2023-04-23T13:42:08.997Z,22.79
2023-04-23T13:44:37.875Z,22.55
2023-04-23T13:47:05.776Z,22.25
2023-04-23T13:49:33.439Z,22.01
2023-04-23T13:52:01.255Z,22.31
2023-04-23T13:54:28.103Z,22.21
2023-04-23T13:56:56.116Z,22.24
2023-04-23T13:59:26.265Z,22.32
2023-04-23T14:01:53.908Z,22.12
2023-04-23T14:04:21.532Z,22.12
2023-04-23T14:06:49.463Z,22.13
2023-04-23T14:09:17.296Z,22.11
2023-04-23T14:11:44.892Z,22.24
2023-04-23T14:14:12.836Z,22.32
2023-04-23T14:16:42.829Z,22.35
2023-04-23T14:19:10.328Z,22.29
2023-04-23T14:21:40.256Z,22.48
2023-04-23T14:24:16.805Z,22.57
2023-04-23T14:26:49.411Z,22.41
2023-04-23T14:29:30.160Z,21.97
2023-04-23T14:31:59.560Z,21.43
2023-04-23T14:34:28.189Z,20.99
2023-04-23T14:36:55.507Z,20.87
2023-04-23T14:39:23.592Z,20.57
2023-04-23T14:41:50.954Z,19.12
2023-04-23T14:44:18.663Z,18.40
2023-04-23T14:46:46.338Z,17.59
2023-04-23T14:49:15.451Z,17.38
2023-04-23T14:51:42.892Z,17.22
2023-04-23T14:54:10.932Z,17.02
2023-04-23T14:56:39.763Z,16.93
2023-04-23T14:59:06.917Z,16.76
2023-04-23T15:01:35.620Z,16.85
2023-04-23T15:04:03.749Z,16.99
2023-04-23T15:06:32.494Z,17.07
2023-04-23T15:09:00.249Z,17.08
2023-04-23T15:11:27.995Z,17.08
2023-04-23T15:14:03.018Z,17.18
2023-04-23T15:19:04.438Z,17.39
2023-04-23T15:21:34.319Z,17.49
2023-04-23T15:24:03.634Z,17.45
2023-04-23T15:26:31.864Z,16.96
2023-04-23T15:28:59.407Z,16.90
2023-04-23T15:31:27.193Z,16.95
2023-04-23T15:33:54.951Z,16.87
2023-04-23T15:36:22.615Z,16.70
2023-04-23T15:38:53.597Z,16.90
2023-04-23T15:41:21.286Z,16.95
2023-04-23T15:43:48.338Z,17.08
2023-04-23T15:46:17.255Z,17.00
2023-04-23T15:48:44.670Z,17.18
2023-04-23T15:51:12.984Z,16.83
2023-04-23T15:53:41.920Z,16.96
2023-04-23T15:56:12.205Z,16.66
2023-04-23T15:58:39.900Z,16.37
2023-04-23T16:01:07.801Z,16.47
2023-04-23T16:03:35.906Z,16.61
2023-04-23T16:06:03.581Z,16.87
2023-04-23T16:08:32.644Z,16.86
2023-04-23T16:11:00.729Z,16.76
2023-04-23T16:13:30.585Z,17.00
2023-04-23T16:15:57.734Z,17.14
2023-04-23T16:18:25.459Z,17.22
2023-04-23T16:20:52.931Z,17.28
2023-04-23T16:23:20.562Z,17.25
2023-04-23T16:25:48.281Z,17.40
2023-04-23T16:28:16.431Z,17.24
2023-04-23T16:30:45.503Z,17.16
2023-04-23T16:33:14.446Z,17.32
2023-04-23T16:35:42.314Z,17.33
2023-04-23T16:38:10.224Z,17.61
2023-04-23T16:40:37.458Z,17.79
2023-04-23T16:43:05.417Z,17.96
2023-04-23T16:45:32.520Z,18.18
2023-04-23T16:48:02.753Z,18.22
2023-04-23T16:50:30.420Z,18.19
2023-04-23T16:52:58.082Z,17.72
2023-04-23T16:55:26.436Z,17.90
2023-04-23T16:57:54.427Z,18.03
2023-04-23T17:00:21.239Z,18.28
2023-04-23T17:02:48.963Z,18.55
2023-04-23T17:05:18.968Z,18.99
2023-04-23T17:07:46.882Z,19.36
2023-04-23T17:10:14.646Z,19.18
2023-04-23T17:12:42.094Z,18.88
2023-04-23T17:15:10.885Z,18.75
2023-04-23T17:17:38.556Z,18.74
2023-04-23T17:20:08.000Z,18.62
2023-04-23T17:22:37.551Z,16.63
2023-04-23T17:25:05.004Z,15.88
2023-04-23T17:27:33.455Z,15.71
2023-04-23T17:30:01.106Z,15.59
2023-04-23T17:32:28.590Z,15.49
2023-04-23T17:35:03.050Z,15.31
2023-04-23T17:37:38.353Z,15.42
2023-04-23T17:40:06.311Z,15.33
2023-04-23T17:42:35.205Z,15.26
2023-04-23T17:45:03.385Z,15.27
2023-04-23T17:47:31.029Z,15.31
2023-04-23T17:49:59.071Z,15.40
2023-04-23T17:52:27.257Z,15.58
2023-04-23T17:54:56.624Z,15.53
2023-04-23T17:57:23.619Z,15.79
2023-04-23T17:59:50.811Z,15.79
2023-04-23T18:02:18.768Z,15.88
2023-04-23T18:04:46.838Z,16.03
2023-04-23T18:07:15.039Z,16.24
2023-04-23T18:09:42.209Z,16.26
2023-04-23T18:12:10.763Z,16.37
2023-04-23T18:14:38.586Z,16.32
2023-04-23T18:17:06.306Z,16.41
2023-04-23T18:19:33.867Z,16.26
2023-04-23T18:22:01.677Z,16.45
2023-04-23T18:24:28.988Z,16.50
2023-04-23T18:26:57.033Z,16.51
2023-04-23T18:29:26.173Z,16.68
2023-04-23T18:31:53.540Z,16.68
2023-04-23T18:34:22.832Z,16.67
2023-04-23T18:36:54.791Z,16.70
2023-04-23T18:39:23.142Z,16.77
2023-04-23T18:41:51.355Z,16.81
2023-04-23T18:44:19.048Z,16.86
2023-04-23T18:46:50.378Z,16.90
2023-04-23T18:49:40.137Z,16.84
2023-04-23T18:52:08.338Z,16.88
2023-04-23T18:54:35.815Z,16.98
2023-04-23T18:57:03.482Z,16.95
2023-04-23T18:59:32.713Z,17.01
2023-04-23T19:02:01.911Z,17.13
2023-04-23T19:04:30.452Z,17.10
2023-04-23T19:06:57.918Z,17.26
2023-04-23T19:09:25.748Z,17.06
2023-04-23T19:11:55.515Z,17.12
2023-04-23T19:14:23.215Z,17.01
2023-04-23T19:16:51.532Z,17.12
2023-04-23T19:19:21.777Z,17.08
2023-04-23T19:21:49.237Z,17.22
2023-04-23T19:24:16.656Z,16.96
2023-04-23T19:26:44.088Z,16.97
2023-04-23T19:29:12.085Z,17.10
2023-04-23T19:31:39.582Z,17.20
2023-04-23T19:34:07.570Z,17.07
2023-04-23T19:36:40.797Z,17.16
2023-04-23T19:39:10.538Z,17.17
2023-04-23T19:41:38.467Z,17.04
2023-04-23T19:44:06.072Z,16.95
2023-04-23T19:46:33.734Z,17.03
2023-04-23T19:49:01.383Z,17.06
2023-04-23T19:51:33.842Z,16.99
2023-04-23T19:54:06.070Z,16.87
2023-04-23T19:56:33.635Z,16.82
2023-04-23T19:59:01.387Z,16.86
2023-04-23T20:01:29.017Z,16.81
2023-04-23T20:03:56.533Z,16.77
2023-04-23T20:06:23.601Z,16.83
2023-04-23T20:08:51.159Z,16.67
2023-04-23T20:11:20.774Z,16.60
2023-04-23T20:13:48.745Z,16.70
2023-04-23T20:16:16.226Z,16.41
2023-04-23T20:18:45.375Z,16.44
2023-04-23T20:21:12.650Z,16.30
2023-04-23T20:23:42.100Z,16.42
2023-04-23T20:26:09.107Z,16.25
2023-04-23T20:28:44.258Z,16.21
2023-04-23T20:31:11.626Z,16.18
2023-04-23T20:33:38.435Z,16.23
2023-04-23T20:36:06.280Z,16.31
2023-04-23T20:38:33.964Z,16.28
2023-04-23T20:41:00.888Z,16.21
2023-04-23T20:43:29.131Z,16.09
2023-04-23T20:45:58.533Z,16.02
2023-04-23T20:48:26.144Z,15.93
2023-04-23T20:50:54.578Z,15.76
2023-04-23T20:53:22.129Z,15.82
2023-04-23T20:55:49.575Z,15.87
2023-04-23T20:58:17.613Z,15.89
2023-04-23T21:00:45.191Z,15.88
2023-04-23T21:03:15.721Z,15.87
2023-04-23T21:05:44.637Z,15.86
2023-04-23T21:08:12.650Z,15.95
2023-04-23T21:10:41.272Z,16.02
2023-04-23T21:13:11.604Z,16.11
2023-04-23T21:15:40.031Z,16.15
2023-04-23T21:18:08.538Z,16.03
2023-04-23T21:20:38.219Z,16.23
2023-04-23T21:23:05.766Z,16.03
2023-04-23T21:25:34.858Z,15.98
2023-04-23T21:28:03.120Z,15.95
2023-04-23T21:30:45.075Z,16.13
2023-04-23T21:33:13.295Z,16.13
2023-04-23T21:35:43.130Z,16.10
2023-04-23T21:38:11.190Z,16.09
2023-04-23T21:40:39.129Z,16.18
2023-04-23T21:43:08.294Z,16.15
2023-04-23T21:45:36.384Z,16.20
2023-04-23T21:48:05.200Z,16.22
2023-04-23T21:50:33.555Z,16.17
2023-04-23T21:53:02.834Z,16.10
2023-04-23T21:55:31.483Z,16.03
2023-04-23T21:58:09.803Z,16.27
2023-04-23T22:00:45.350Z,16.11
2023-04-23T22:03:14.671Z,16.04
2023-04-23T22:05:49.964Z,16.02
2023-04-23T22:08:19.581Z,16.00
2023-04-23T22:10:47.247Z,15.79
2023-04-23T22:13:14.888Z,15.92
2023-04-23T22:15:43.245Z,15.92
2023-04-23T22:18:10.912Z,15.93
2023-04-23T22:20:39.121Z,15.96
2023-04-23T22:23:07.153Z,16.05
2023-04-23T22:25:35.917Z,16.00
2023-04-23T22:28:03.867Z,16.02
2023-04-23T22:30:31.440Z,16.03
2023-04-23T22:32:59.227Z,16.11
2023-04-23T22:35:27.307Z,16.07
2023-04-23T22:37:54.214Z,16.21
2023-04-23T22:40:22.169Z,16.19
2023-04-23T22:42:51.632Z,16.29
2023-04-23T22:45:19.803Z,16.25
2023-04-23T22:47:47.839Z,16.25
2023-04-23T22:50:15.366Z,16.21
2023-04-23T22:52:42.969Z,16.18
2023-04-23T22:55:10.821Z,16.12
2023-04-23T22:57:38.480Z,16.18
2023-04-23T23:00:12.809Z,16.16
2023-04-23T23:02:40.661Z,16.24
2023-04-23T23:05:08.569Z,16.28
2023-04-23T23:07:37.893Z,16.31
2023-04-23T23:10:05.386Z,16.28
2023-04-23T23:12:33.520Z,16.24
2023-04-23T23:15:03.687Z,16.25
2023-04-23T23:17:33.092Z,16.29
2023-04-23T23:20:00.821Z,16.21
2023-04-23T23:22:28.042Z,16.21
2023-04-23T23:24:56.591Z,15.99
2023-04-23T23:27:23.514Z,15.95
2023-04-23T23:29:51.517Z,16.04
2023-04-23T23:32:19.176Z,15.94
2023-04-23T23:34:48.576Z,15.87
2023-04-23T23:37:16.233Z,15.85
2023-04-23T23:39:44.012Z,15.88
2023-04-23T23:42:11.325Z,15.79
2023-04-23T23:44:38.963Z,15.89
2023-04-23T23:47:06.915Z,15.94
2023-04-23T23:49:35.294Z,15.82
2023-04-23T23:52:04.848Z,15.73
2023-04-23T23:54:32.036Z,15.88
2023-04-23T23:56:59.450Z,15.94
2023-04-23T23:59:27.003Z,15.90
